Time;durP1;ratioP1;P1;durP2;ratioP2;P2;SDS_P1;SDS_P2;PMS_P1;PMS_P2;Temp;Humidity;BMP_temperature;BMP_pressure;BME280_temperature;BME280_humidity;BME280_pressure;Samples;Min_cycle;Max_cycle;Signal;HPM_P1;HPM_P2
2024/01/03 00:00:29;;;;;;;79.43;26.13;;;;;;;-141.97;100.00;46231.56;6229431;23;20257;-85
2024/01/03 00:02:56;;;;;;;104.00;29.10;;;;;;;-141.97;100.00;46262.28;6241523;23;20387;-86
2024/01/03 00:05:23;;;;;;;122.70;27.43;;;;;;;-141.97;100.00;45928.00;6242815;22;20715;-86
2024/01/03 00:07:49;;;;;;;117.00;28.70;;;;;;;-141.97;100.00;46241.16;6242778;22;20470;-85
2024/01/03 00:10:30;;;;;;;95.20;26.93;;;;;;;-141.97;100.00;46239.25;6241007;23;20450;-86
2024/01/03 00:12:55;;;;;;;80.33;25.83;;;;;;;-141.97;100.00;46100.91;6243548;23;20500;-85
2024/01/03 00:15:36;;;;;;;204.50;27.57;;;;;;;-141.97;100.00;46239.25;6243072;22;20356;-86
2024/01/03 00:18:05;;;;;;;166.80;31.20;;;;;;;-141.97;100.00;46250.78;6242986;23;20137;-86
2024/01/03 00:20:32;;;;;;;105.73;26.10;;;;;;;-141.97;100.00;46110.50;6243097;22;20364;-86
2024/01/03 00:23:12;;;;;;;184.77;30.33;;;;;;;-141.97;100.00;46177.75;6243381;22;20367;-88
2024/01/03 00:25:38;;;;;;;171.67;28.27;;;;;;;-141.97;100.00;46231.56;6243091;22;20668;-88
2024/01/03 00:28:03;;;;;;;108.50;26.80;;;;;;;-141.97;100.00;46475.56;6242895;23;20356;-87
2024/01/03 00:30:29;;;;;;;148.20;27.17;;;;;;;-141.97;100.00;46131.66;6240878;23;20178;-86
2024/01/03 00:32:54;;;;;;;124.13;25.97;;;;;;;-141.97;100.00;46050.97;6242830;22;20143;-87
2024/01/03 00:35:20;;;;;;;192.73;29.80;;;;;;;-141.97;100.00;46673.47;6240620;23;20310;-86
2024/01/03 00:37:46;;;;;;;187.60;30.97;;;;;;;-141.97;100.00;46260.38;6242424;23;20515;-87
2024/01/03 00:40:47;;;;;;;236.00;31.30;;;;;;;-141.97;100.00;46214.25;6242800;22;20129;-88
2024/01/03 00:43:12;;;;;;;199.13;31.90;;;;;;;-141.97;100.00;46181.59;6209680;23;20543;-86
2024/01/03 00:45:37;;;;;;;176.03;29.67;;;;;;;-141.97;100.00;46052.88;6184233;23;20479;-87
2024/01/03 00:48:03;;;;;;;87.60;26.27;;;;;;;-141.97;100.00;46525.53;6184964;23;20190;-87
2024/01/03 00:50:28;;;;;;;98.90;28.43;;;;;;;-141.97;100.00;46125.88;6209820;23;20172;-87
2024/01/03 00:52:54;;;;;;;120.00;31.77;;;;;;;-141.97;100.00;46127.81;6184643;23;20172;-86
2024/01/03 00:55:19;;;;;;;131.07;32.97;;;;;;;-141.97;100.00;46675.41;6184336;23;20145;-87
2024/01/03 00:57:45;;;;;;;129.37;28.33;;;;;;;-141.97;100.00;46052.88;6209256;23;20276;-86
2024/01/03 01:00:11;;;;;;;74.03;27.10;;;;;;;-141.97;100.00;46546.66;6209484;23;20216;-88
2024/01/03 01:02:37;;;;;;;106.60;29.87;;;;;;;-141.97;100.00;46056.72;6184216;23;20153;-87
2024/01/03 01:05:02;;;;;;;130.63;31.57;;;;;;;-141.97;100.00;46062.47;6184313;23;20479;-87
2024/01/03 01:07:28;;;;;;;111.07;29.87;;;;;;;-141.97;100.00;46083.63;6183872;23;20157;-86
2024/01/03 01:09:53;;;;;;;130.70;32.67;;;;;;;-141.97;100.00;46100.91;6209180;23;20165;-87
2024/01/03 01:12:20;;;;;;;121.90;32.57;;;;;;;-141.97;100.00;46072.09;6184262;23;20228;-87
2024/01/03 01:14:46;;;;;;;98.33;31.77;;;;;;;-141.97;100.00;46467.88;6184152;23;20159;-87
2024/01/03 01:17:11;;;;;;;106.27;32.27;;;;;;;-141.97;100.00;46462.13;6209103;23;20392;-86
2024/01/03 01:19:37;;;;;;;119.60;31.60;;;;;;;-141.97;100.00;46145.09;6222735;23;20614;-87
2024/01/03 01:22:02;;;;;;;106.63;30.33;;;;;;;-141.97;100.00;46440.97;6240712;23;20172;-87
2024/01/03 01:24:28;;;;;;;75.43;28.77;;;;;;;-141.97;100.00;46264.22;6242320;23;20145;-87
2024/01/03 01:26:53;;;;;;;109.87;31.23;;;;;;;-141.97;100.00;46638.91;6240799;23;20155;-86
2024/01/03 01:29:18;;;;;;;80.93;28.63;;;;;;;-141.97;100.00;46129.72;6240528;23;20175;-87
2024/01/03 01:31:44;;;;;;;108.60;30.90;;;;;;;-141.97;100.00;46627.38;6240525;23;20141;-87
2024/01/03 01:34:10;;;;;;;79.73;29.93;;;;;;;-141.97;100.00;46708.06;6241997;23;20216;-88
2024/01/03 01:36:35;;;;;;;90.00;32.10;;;;;;;-141.97;100.00;45881.91;6240759;23;20141;-87
2024/01/03 01:39:01;;;;;;;89.97;34.00;;;;;;;-141.97;100.00;46538.97;6242045;22;20777;-86
2024/01/03 01:41:26;;;;;;;78.07;31.53;;;;;;;-141.97;100.00;46085.53;6242215;23;20137;-86
2024/01/03 01:43:53;;;;;;;97.97;32.27;;;;;;;-141.97;100.00;46102.81;6240670;23;20145;-87
2024/01/03 01:46:19;;;;;;;106.97;32.80;;;;;;;-141.97;100.00;46216.19;6242201;22;20140;-87
2024/01/03 01:48:46;;;;;;;81.83;30.47;;;;;;;-141.97;100.00;46223.88;6242200;22;20364;-87
2024/01/03 01:51:12;;;;;;;86.73;30.10;;;;;;;-141.97;100.00;46569.72;6242250;22;20190;-88
2024/01/03 01:53:38;;;;;;;76.13;26.83;;;;;;;-141.97;100.00;46556.28;6240970;23;20364;-87
2024/01/03 01:56:05;;;;;;;77.53;29.63;;;;;;;-141.97;100.00;46254.59;6240765;23;20371;-87
2024/01/03 01:58:31;;;;;;;73.13;27.67;;;;;;;-141.97;100.00;46319.94;6272902;22;20481;-86
2024/01/03 02:00:57;;;;;;;94.87;32.17;;;;;;;-141.97;100.00;46608.16;6271660;22;20455;-86
2024/01/03 02:03:23;;;;;;;154.60;34.37;;;;;;;-141.97;100.00;46341.06;6271028;22;20374;-86
2024/01/03 02:05:49;;;;;;;156.63;34.33;;;;;;;-141.97;100.00;46552.44;6272503;22;20386;-86
2024/01/03 02:08:16;;;;;;;86.67;27.00;;;;;;;-141.97;100.00;46127.81;6271197;22;20231;-87
2024/01/03 02:10:41;;;;;;;83.70;29.37;;;;;;;-141.97;100.00;46312.25;6271012;22;20547;-86
2024/01/03 02:13:07;;;;;;;156.93;32.80;;;;;;;-141.97;100.00;46250.78;6271281;22;20371;-86
2024/01/03 02:15:32;;;;;;;90.37;26.67;;;;;;;-141.97;100.00;46196.97;6273350;22;21093;-86
2024/01/03 02:17:59;;;;;;;102.03;29.93;;;;;;;-141.97;100.00;46104.75;6273024;22;20151;-86
2024/01/03 02:20:25;;;;;;;112.23;33.13;;;;;;;-141.97;100.00;46285.34;6276422;22;20208;-86
2024/01/03 02:22:51;;;;;;;128.67;31.80;;;;;;;-141.97;100.00;46702.31;6275371;22;20866;-86
2024/01/03 02:25:16;;;;;;;127.57;32.40;;;;;;;-141.97;100.00;46289.19;6275442;22;20450;-87
2024/01/03 02:27:42;;;;;;;165.07;31.67;;;;;;;-141.97;100.00;46014.44;6273781;22;20159;-87
2024/01/03 02:30:09;;;;;;;107.03;30.50;;;;;;;-141.97;100.00;46279.59;6273246;22;20193;-86
2024/01/03 02:32:35;;;;;;;168.07;31.63;;;;;;;-141.97;100.00;46145.09;6275688;22;20220;-87
2024/01/03 02:35:00;;;;;;;157.30;32.93;;;;;;;-141.97;100.00;46164.31;6274492;22;20371;-86
2024/01/03 02:37:26;;;;;;;128.20;28.83;;;;;;;-141.97;100.00;46721.53;6277500;22;20143;-87
2024/01/03 02:39:52;;;;;;;119.30;30.27;;;;;;;-141.97;100.00;46166.22;6274113;22;20140;-86
2024/01/03 02:42:17;;;;;;;93.93;29.27;;;;;;;-141.97;100.00;46544.75;6277457;22;20449;-86
2024/01/03 02:44:42;;;;;;;141.93;28.27;;;;;;;-141.97;100.00;46237.31;6276860;22;20549;-86
2024/01/03 02:47:08;;;;;;;94.40;25.13;;;;;;;-141.97;100.00;46250.78;6275015;22;20253;-87
2024/01/03 02:49:34;;;;;;;104.27;26.90;;;;;;;-141.97;100.00;46314.16;6275126;22;20302;-86
2024/01/03 02:52:00;;;;;;;102.30;26.40;;;;;;;-141.97;100.00;46302.66;6275762;22;20219;-87
2024/01/03 02:54:26;;;;;;;112.80;28.83;;;;;;;-141.97;100.00;46127.81;6273645;22;20147;-86
2024/01/03 02:56:53;;;;;;;125.93;27.50;;;;;;;-141.97;100.00;46066.31;6281676;22;20963;-86
2024/01/03 02:59:19;;;;;;;126.37;25.93;;;;;;;-141.97;100.00;46246.94;6307812;22;20350;-87
2024/01/03 03:01:44;;;;;;;199.13;31.37;;;;;;;-141.97;100.00;46020.22;6311574;22;20362;-88
2024/01/03 03:04:10;;;;;;;143.27;27.87;;;;;;;-141.97;100.00;46319.94;6279593;22;20140;-87
2024/01/03 03:06:35;;;;;;;78.00;24.87;;;;;;;-141.97;100.00;46120.13;6283621;22;20219;-85
2024/01/03 03:09:01;;;;;;;184.13;30.13;;;;;;;-141.97;100.00;46123.97;6267626;22;20176;-85
2024/01/03 03:11:26;;;;;;;124.50;30.80;;;;;;;-141.97;100.00;46070.16;6221450;23;20151;-86
2024/01/03 03:13:51;;;;;;;133.97;30.90;;;;;;;-141.97;100.00;46389.09;6220794;23;20224;-87
2024/01/03 03:16:17;;;;;;;137.00;30.97;;;;;;;-141.97;100.00;46269.97;6221190;23;20136;-89
2024/01/03 03:18:42;;;;;;;166.20;35.07;;;;;;;-141.97;100.00;46612.00;6220552;23;20151;-89
2024/01/03 03:21:08;;;;;;;186.93;38.10;;;;;;;-141.97;100.00;46552.44;6245085;23;20188;-88
2024/01/03 03:23:35;;;;;;;119.77;30.67;;;;;;;-141.97;100.00;46123.97;6221713;23;20141;-88
2024/01/03 03:26:02;;;;;;;141.63;30.07;;;;;;;-141.97;100.00;46535.13;6247870;23;20383;-88
2024/01/03 03:28:27;;;;;;;94.57;27.70;;;;;;;-141.97;100.00;46058.63;6245836;23;20787;-89
2024/01/03 03:30:53;;;;;;;118.97;27.10;;;;;;;-141.97;100.00;46097.06;6221550;23;20404;-89
2024/01/03 03:33:18;;;;;;;130.90;27.80;;;;;;;-141.97;100.00;46150.84;6220044;23;20176;-90
2024/01/03 03:35:44;;;;;;;80.90;26.07;;;;;;;-141.97;100.00;46587.00;6219185;23;20204;-89
2024/01/03 03:38:09;;;;;;;108.37;28.53;;;;;;;-141.97;100.00;46089.38;6217130;23;20211;-87
2024/01/03 03:40:34;;;;;;;81.37;24.43;;;;;;;-141.97;100.00;46525.53;6243728;23;20141;-88
2024/01/03 03:43:00;;;;;;;112.97;29.10;;;;;;;-141.97;100.00;46143.19;6247402;23;20523;-88
2024/01/03 03:45:25;;;;;;;104.70;29.47;;;;;;;-141.97;100.00;46546.66;6217613;23;20303;-87
2024/01/03 03:47:51;;;;;;;96.30;27.63;;;;;;;-141.97;100.00;46558.19;6244599;23;20137;-88
2024/01/03 03:50:16;;;;;;;105.97;33.27;;;;;;;-141.97;100.00;46562.03;6217711;23;20183;-87
2024/01/03 03:52:41;;;;;;;148.93;34.83;;;;;;;-141.97;100.00;46640.81;6245253;23;20225;-88
2024/01/03 03:55:07;;;;;;;188.97;35.80;;;;;;;-141.97;100.00;46252.69;6217269;23;20582;-88
2024/01/03 03:57:34;;;;;;;173.03;43.30;;;;;;;-141.97;100.00;46310.31;6244505;23;20141;-88
2024/01/03 04:00:00;;;;;;;166.77;42.70;;;;;;;-141.97;100.00;46200.81;6243999;23;20360;-88
2024/01/03 04:02:25;;;;;;;188.40;32.93;;;;;;;-141.97;100.00;46100.91;6217347;23;20465;-89
2024/01/03 04:04:51;;;;;;;125.07;29.37;;;;;;;-141.97;100.00;46110.50;6216643;23;20140;-89
2024/01/03 04:07:17;;;;;;;113.30;27.77;;;;;;;-141.97;100.00;46218.09;6216626;23;20196;-88
2024/01/03 04:09:45;;;;;;;77.90;26.83;;;;;;;-141.97;100.00;46600.47;6249628;23;20445;-88
2024/01/03 04:12:10;;;;;;;91.43;26.33;;;;;;;-141.97;100.00;46139.34;6224121;23;20165;-89
2024/01/03 04:14:39;;;;;;;129.30;27.37;;;;;;;-141.97;100.00;46177.75;6222633;23;20383;-88
2024/01/03 04:17:04;;;;;;;69.37;24.47;;;;;;;-141.97;100.00;46077.84;6223504;23;20140;-90
2024/01/03 04:19:30;;;;;;;74.97;25.33;;;;;;;-141.97;100.00;46166.22;6218849;23;20370;-89
2024/01/03 04:21:57;;;;;;;118.70;26.23;;;;;;;-141.97;100.00;46523.59;6244473;23;20548;-86
2024/01/03 04:24:22;;;;;;;78.80;22.70;;;;;;;-141.97;100.00;46183.53;6244184;23;20137;-87
2024/01/03 04:26:48;;;;;;;68.80;23.20;;;;;;;-141.97;100.00;46293.03;6243938;23;20364;-85
2024/01/03 04:29:13;;;;;;;93.60;25.30;;;;;;;-141.97;100.00;46294.97;6243638;23;20484;-85
2024/01/03 04:31:39;;;;;;;96.20;26.70;;;;;;;-141.97;100.00;46223.88;6243126;23;20171;-86
2024/01/03 04:34:05;;;;;;;102.47;25.67;;;;;;;-141.97;100.00;46108.59;6217008;23;20144;-85
2024/01/03 04:36:30;;;;;;;87.07;24.77;;;;;;;-141.97;100.00;46548.59;6216696;23;20141;-85
2024/01/03 04:38:55;;;;;;;101.10;24.97;;;;;;;-141.97;100.00;46556.28;6241844;23;20168;-85
2024/01/03 04:41:21;;;;;;;88.77;23.13;;;;;;;-141.97;100.00;46043.28;6215938;23;20211;-85
2024/01/03 04:43:47;;;;;;;95.63;25.30;;;;;;;-141.97;100.00;46131.66;6216353;23;20152;-85
2024/01/03 04:46:12;;;;;;;84.93;26.57;;;;;;;-141.97;100.00;46569.72;6242569;23;20133;-86
2024/01/03 04:48:37;;;;;;;88.67;26.13;;;;;;;-141.97;100.00;46129.72;6215830;23;20202;-87
2024/01/03 04:51:03;;;;;;;70.70;25.40;;;;;;;-141.97;100.00;46160.47;6242911;23;20239;-86
2024/01/03 04:53:28;;;;;;;95.20;26.40;;;;;;;-141.97;100.00;46110.50;6215897;23;20421;-87
2024/01/03 04:55:54;;;;;;;69.07;23.37;;;;;;;-141.97;100.00;46091.31;6215751;23;20148;-87
2024/01/03 04:58:19;;;;;;;51.80;20.90;;;;;;;-141.97;100.00;46304.56;6215758;23;20151;-88
2024/01/03 05:00:45;;;;;;;77.43;23.13;;;;;;;-141.97;100.00;46289.19;6215734;23;20137;-87
2024/01/03 05:03:11;;;;;;;59.07;22.60;;;;;;;-141.97;100.00;46558.19;6215699;23;20149;-87
2024/01/03 05:05:37;;;;;;;78.67;24.80;;;;;;;-141.97;100.00;46300.72;6215725;23;20148;-86
2024/01/03 05:08:02;;;;;;;83.87;26.37;;;;;;;-141.97;100.00;46298.81;6210333;23;20747;-88
2024/01/03 05:10:28;;;;;;;100.40;28.97;;;;;;;-141.97;100.00;46279.59;6212447;23;20223;-88
2024/01/03 05:12:53;;;;;;;91.03;28.63;;;;;;;-141.97;100.00;46533.22;6210505;23;20244;-87
2024/01/03 05:15:18;;;;;;;131.83;42.70;;;;;;;-141.97;100.00;46469.81;6210100;23;20137;-87
2024/01/03 05:17:46;;;;;;;121.07;41.23;;;;;;;-141.97;100.00;46097.06;6211915;23;20138;-88
2024/01/03 05:20:12;;;;;;;185.03;49.53;;;;;;;-141.97;100.00;46268.06;6210523;23;20141;-88
2024/01/03 05:22:37;;;;;;;193.07;55.03;;;;;;;-141.97;100.00;46158.53;6210528;23;20430;-88
2024/01/03 05:25:06;;;;;;;208.70;56.27;;;;;;;-141.97;100.00;45966.44;6210520;23;20537;-89
2024/01/03 05:27:31;;;;;;;121.40;34.93;;;;;;;-141.97;100.00;46131.66;6210691;23;20645;-88
2024/01/03 05:29:57;;;;;;;176.07;41.07;;;;;;;-141.97;100.00;46154.69;6210129;23;20420;-87
2024/01/03 05:32:22;;;;;;;269.27;54.03;;;;;;;-141.97;100.00;46275.75;6209965;23;20191;-87
2024/01/03 05:34:47;;;;;;;236.17;52.47;;;;;;;-141.97;100.00;46074.00;6215599;23;20555;-87
2024/01/03 05:37:13;;;;;;;200.67;50.17;;;;;;;-141.97;100.00;46481.34;6213420;23;20145;-87
2024/01/03 05:39:38;;;;;;;197.77;53.70;;;;;;;-141.97;100.00;46440.97;6210531;23;20207;-88
2024/01/03 05:42:04;;;;;;;211.20;56.40;;;;;;;-141.97;100.00;46070.16;6210744;23;20142;-88
2024/01/03 05:44:29;;;;;;;219.83;53.50;;;;;;;-141.97;100.00;46127.81;6209995;23;20149;-88
2024/01/03 05:46:55;;;;;;;168.37;43.37;;;;;;;-141.97;100.00;46195.06;6211771;23;20229;-87
2024/01/03 05:49:20;;;;;;;127.23;35.77;;;;;;;-141.97;100.00;45993.31;6210038;23;20175;-87
2024/01/03 05:51:46;;;;;;;110.70;34.57;;;;;;;-141.97;100.00;46671.56;6212462;23;20148;-87
2024/01/03 05:54:11;;;;;;;121.43;34.37;;;;;;;-141.97;100.00;46097.06;6215091;23;20571;-88
2024/01/03 05:56:37;;;;;;;91.90;30.77;;;;;;;-141.97;100.00;45958.75;6215813;23;20229;-88
2024/01/03 05:59:03;;;;;;;119.30;30.40;;;;;;;-141.97;100.00;46515.91;6216185;23;20169;-86
2024/01/03 06:01:28;;;;;;;87.50;29.77;;;;;;;-141.97;100.00;46469.81;6213568;23;20479;-85
2024/01/03 06:03:54;;;;;;;187.10;54.33;;;;;;;-141.97;100.00;46200.81;6214759;23;20141;-86
2024/01/03 06:06:19;;;;;;;168.33;47.80;;;;;;;-141.97;100.00;46014.44;6212825;23;20146;-87
2024/01/03 06:08:44;;;;;;;112.43;37.40;;;;;;;-141.97;100.00;46148.94;6187260;23;20152;-88
2024/01/03 06:11:10;;;;;;;113.93;29.70;;;;;;;-141.97;100.00;46147.03;6187002;23;20543;-87
2024/01/03 06:13:36;;;;;;;218.60;66.80;;;;;;;-141.97;100.00;46139.34;6214328;23;20637;-88
2024/01/03 06:16:01;;;;;;;223.93;62.87;;;;;;;-141.97;100.00;46120.13;6189130;23;20667;-92
2024/01/03 06:18:26;;;;;;;217.43;58.97;;;;;;;-141.97;100.00;46039.44;6188340;23;20153;-90
2024/01/03 06:20:55;;;;;;;193.67;57.93;;;;;;;-141.97;100.00;46437.13;6215026;23;20161;-90
2024/01/03 06:23:20;;;;;;;172.17;47.43;;;;;;;-141.97;100.00;46450.59;6187573;23;20657;-89
2024/01/03 06:25:46;;;;;;;110.80;36.17;;;;;;;-141.97;100.00;46556.28;6188531;23;20380;-89
2024/01/03 06:28:11;;;;;;;80.60;28.30;;;;;;;-141.97;100.00;46573.56;6189027;23;20152;-90
2024/01/03 06:30:37;;;;;;;72.47;27.17;;;;;;;-141.97;100.00;46638.91;6217931;23;20173;-90
2024/01/03 06:33:02;;;;;;;104.70;31.30;;;;;;;-141.97;100.00;46227.72;6213944;23;20217;-89
2024/01/03 06:35:29;;;;;;;91.47;30.83;;;;;;;-141.97;100.00;46135.50;6186760;23;20153;-90
2024/01/03 06:37:57;;;;;;;88.63;31.30;;;;;;;-141.97;100.00;46519.75;6186666;23;20149;-90
2024/01/03 06:40:22;;;;;;;101.07;32.93;;;;;;;-141.97;100.00;46627.38;6213482;23;20388;-88
2024/01/03 06:42:48;;;;;;;119.00;35.23;;;;;;;-141.97;100.00;46331.47;6214121;23;20447;-90
2024/01/03 06:45:14;;;;;;;108.83;34.43;;;;;;;-141.97;100.00;46671.56;6188537;23;20487;-89
2024/01/03 06:47:41;;;;;;;96.90;27.40;;;;;;;-141.97;100.00;46590.84;6214794;23;20594;-89
2024/01/03 06:50:07;;;;;;;105.63;28.47;;;;;;;-141.97;100.00;46604.31;6188151;23;20432;-89
2024/01/03 06:52:33;;;;;;;108.73;30.87;;;;;;;-141.97;100.00;46120.13;6189259;23;20422;-90
2024/01/03 06:54:58;;;;;;;198.77;51.87;;;;;;;-141.97;100.00;46187.38;6193682;23;20184;-90
2024/01/03 06:57:23;;;;;;;183.70;52.13;;;;;;;-141.97;100.00;46218.09;6188691;23;20236;-89
2024/01/03 06:59:49;;;;;;;116.00;30.30;;;;;;;-141.97;100.00;46554.34;6218934;23;20174;-89
2024/01/03 07:02:15;;;;;;;126.13;36.47;;;;;;;-141.97;100.00;46095.16;6211589;23;20145;-88
2024/01/03 07:04:40;;;;;;;158.13;44.73;;;;;;;-141.97;100.00;46016.38;6186857;23;20141;-88
2024/01/03 07:07:05;;;;;;;136.83;36.03;;;;;;;-141.97;100.00;46427.53;6212971;23;20193;-86
2024/01/03 07:09:31;;;;;;;156.00;40.43;;;;;;;-141.97;100.00;46054.81;6212795;23;20192;-88
2024/01/03 07:11:56;;;;;;;169.43;40.47;;;;;;;-141.97;100.00;46254.59;6194883;23;20153;-88
2024/01/03 07:14:32;;;;;;;134.50;40.67;;;;;;;-141.97;100.00;46508.22;6223094;23;20145;-88
2024/01/03 07:16:57;;;;;;;103.73;32.80;;;;;;;-141.97;100.00;45935.69;6198901;23;20141;-91
2024/01/03 07:19:23;;;;;;;86.73;28.63;;;;;;;-141.97;100.00;45997.16;6233877;22;20428;-93
2024/01/03 07:21:49;;;;;;;95.37;29.33;;;;;;;-141.97;100.00;46293.03;6233222;22;20138;-91
2024/01/03 07:24:14;;;;;;;103.67;33.77;;;;;;;-141.97;100.00;46531.28;6229272;23;20137;-90
2024/01/03 07:31:50;;;;;;;173.30;54.67;;;;;;;-141.97;100.00;46006.78;6299223;22;20463;-86
2024/01/03 07:34:15;;;;;;;207.20;67.03;;;;;;;-141.97;100.00;46490.94;6304936;22;20370;-89
2024/01/03 07:36:41;;;;;;;165.87;49.43;;;;;;;-141.97;100.00;46085.53;6277674;22;20155;-89
2024/01/03 07:39:07;;;;;;;142.73;44.10;;;;;;;-141.97;100.00;45970.25;6305074;22;20587;-90
2024/01/03 07:41:35;;;;;;;149.47;48.53;;;;;;;-141.97;100.00;46066.31;6305290;22;20141;-89
2024/01/03 07:44:01;;;;;;;118.93;40.10;;;;;;;-141.97;100.00;45868.44;6277918;22;20770;-90
2024/01/03 07:54:12;;;;;;;126.03;43.37;;;;;;;-141.97;100.00;46412.16;6306018;22;20465;-89
2024/01/03 07:56:37;;;;;;;146.90;48.47;;;;;;;-141.97;100.00;46481.34;6292349;22;20402;-90
2024/01/03 07:59:03;;;;;;;107.40;34.90;;;;;;;-141.97;100.00;46079.78;6283887;22;20183;-90
2024/01/03 08:01:28;;;;;;;127.40;44.07;;;;;;;-141.97;100.00;46070.16;6278211;22;20572;-90
2024/01/03 08:03:54;;;;;;;163.80;45.83;;;;;;;-141.97;100.00;45974.09;6278203;22;20308;-90
2024/01/03 08:06:20;;;;;;;138.77;47.40;;;;;;;-141.97;100.00;46252.69;6305888;22;20141;-90
2024/01/03 08:08:46;;;;;;;135.60;50.07;;;;;;;-141.97;100.00;45997.16;6287371;22;20135;-92
2024/01/03 08:11:21;;;;;;;100.83;36.77;;;;;;;-141.97;100.00;46024.06;6305790;22;20412;-90
2024/01/03 08:14:16;;;;;;;;;;;;;;;;;;;;;
2024/01/03 09:05:38;;;;;;;159.73;51.47;;;;;;;-141.97;100.00;46419.84;6179949;23;20789;-88
2024/01/03 09:08:04;;;;;;;142.10;44.03;;;;;;;-141.97;100.00;46540.91;6176729;23;20472;-88
2024/01/03 09:10:29;;;;;;;144.50;45.90;;;;;;;-141.97;100.00;45962.59;6183344;23;20222;-90
2024/01/03 09:12:55;;;;;;;137.13;45.17;;;;;;;-141.97;100.00;46612.00;6182492;23;20399;-88
2024/01/03 09:15:20;;;;;;;132.90;43.47;;;;;;;-141.97;100.00;46423.69;6182236;23;20149;-89
2024/01/03 09:17:46;;;;;;;171.30;53.20;;;;;;;-141.97;100.00;46139.34;6158513;23;20221;-89
2024/01/03 09:20:12;;;;;;;135.70;42.47;;;;;;;-141.97;100.00;46587.00;6186526;23;20126;-88
2024/01/03 09:22:38;;;;;;;156.70;51.27;;;;;;;-141.97;100.00;46002.94;6155947;23;20587;-88
2024/01/03 09:25:04;;;;;;;142.87;47.17;;;;;;;-141.97;100.00;46216.19;6155899;23;20541;-88
2024/01/03 09:27:30;;;;;;;147.57;47.80;;;;;;;-141.97;100.00;45979.88;6181975;23;20481;-87
2024/01/03 09:29:55;;;;;;;140.80;45.93;;;;;;;-141.97;100.00;46210.41;6194307;23;20170;-90
2024/01/03 09:32:21;;;;;;;134.57;43.90;;;;;;;-141.97;100.00;46012.53;6198471;23;20142;-89
2024/01/03 09:34:47;;;;;;;192.27;62.03;;;;;;;-141.97;100.00;46131.66;6193968;23;20196;-87
2024/01/03 09:37:13;;;;;;;142.80;46.33;;;;;;;-141.97;100.00;46139.34;6157083;23;20150;-88
2024/01/03 09:39:40;;;;;;;197.20;67.77;;;;;;;-141.97;100.00;46537.06;6157367;23;20240;-88
2024/01/03 09:42:06;;;;;;;171.60;60.43;;;;;;;-141.97;100.00;46227.72;6183981;23;20366;-88
2024/01/03 09:44:33;;;;;;;168.20;57.60;;;;;;;-141.97;100.00;46120.13;6157871;23;20380;-88
2024/01/03 09:46:59;;;;;;;131.27;43.30;;;;;;;-141.97;100.00;45945.28;6183370;23;20362;-88
2024/01/03 09:49:24;;;;;;;140.50;46.10;;;;;;;-141.97;100.00;45987.56;6190422;23;20573;-89
2024/01/03 09:51:51;;;;;;;157.37;52.93;;;;;;;-141.97;100.00;46081.69;6158064;23;20296;-88
2024/01/03 09:54:19;;;;;;;180.10;65.67;;;;;;;-141.97;100.00;46120.13;6183232;23;20134;-89
2024/01/03 09:56:47;;;;;;;202.40;78.43;;;;;;;-141.97;100.00;45976.03;6155716;23;20377;-89
2024/01/03 09:59:17;;;;;;;258.13;93.73;;;;;;;-141.97;100.00;46220.03;6180737;23;20373;-88
2024/01/03 10:01:53;;;;;;;242.00;90.77;;;;;;;-141.97;100.00;46212.34;6182213;23;20358;-88
2024/01/03 10:04:18;;;;;;;250.03;89.47;;;;;;;-141.97;100.00;46402.56;6179512;23;20930;-89
2024/01/03 10:06:52;;;;;;;169.53;59.53;;;;;;;-141.97;100.00;46337.22;6153786;23;20373;-87
2024/01/03 10:09:18;;;;;;;146.20;53.23;;;;;;;-141.97;100.00;46066.31;6181865;23;20173;-90
2024/01/03 10:11:44;;;;;;;153.37;55.03;;;;;;;-141.97;100.00;46027.91;6182244;23;20370;-88
2024/01/03 10:14:16;;;;;;;154.03;53.43;;;;;;;-141.97;100.00;46383.34;6155174;23;20225;-89
2024/01/03 10:16:43;;;;;;;162.90;57.47;;;;;;;-141.97;100.00;46429.47;6181644;23;20139;-88
2024/01/03 10:19:15;;;;;;;142.10;52.83;;;;;;;-141.97;100.00;46208.50;6185285;23;20854;-89
2024/01/03 10:21:52;;;;;;;173.60;56.73;;;;;;;-141.97;100.00;46062.47;6180249;23;20388;-89
2024/01/03 10:24:19;;;;;;;179.60;56.50;;;;;;;-141.97;100.00;46206.56;6181438;23;20411;-88
2024/01/03 10:26:45;;;;;;;147.60;48.73;;;;;;;-141.97;100.00;46490.94;6180346;23;20362;-88
2024/01/03 10:29:18;;;;;;;128.60;49.27;;;;;;;-141.97;100.00;45977.94;6181760;23;20400;-88
2024/01/03 10:31:48;;;;;;;147.03;55.60;;;;;;;-141.97;100.00;46439.06;6181581;23;20138;-88
2024/01/03 10:34:20;;;;;;;126.73;52.57;;;;;;;-141.97;100.00;46223.88;6155775;23;20803;-89
2024/01/03 10:36:47;;;;;;;108.57;40.87;;;;;;;-141.97;100.00;45949.13;6180007;23;20417;-88
2024/01/03 10:39:18;;;;;;;153.20;57.70;;;;;;;-141.97;100.00;46175.84;6182422;23;20381;-88
2024/01/03 10:41:45;;;;;;;117.03;46.80;;;;;;;-141.97;100.00;46089.38;6183794;23;20369;-89
2024/01/03 10:44:13;;;;;;;245.40;101.67;;;;;;;-141.97;100.00;46016.38;6188068;23;20215;-88
2024/01/03 10:46:41;;;;;;;173.77;72.63;;;;;;;-141.97;100.00;46196.97;6159714;23;20377;-88
2024/01/03 10:49:19;;;;;;;345.23;140.73;;;;;;;-141.97;100.00;46204.66;6188762;23;20458;-88
2024/01/03 10:51:48;;;;;;;211.30;86.73;;;;;;;-141.97;100.00;46110.50;6183762;23;20452;-89
2024/01/03 10:54:15;;;;;;;216.77;82.77;;;;;;;-141.97;100.00;46054.81;6182201;23;20181;-89
2024/01/03 10:56:48;;;;;;;111.73;43.73;;;;;;;-141.97;100.00;46150.84;6183250;23;20142;-89
2024/01/03 10:59:14;;;;;;;107.70;38.13;;;;;;;-141.97;100.00;46139.34;6184304;23;20217;-89
2024/01/03 11:01:55;;;;;;;106.67;38.20;;;;;;;-141.97;100.00;46141.25;6184516;23;20441;-89
2024/01/03 11:04:37;;;;;;;97.37;36.90;;;;;;;-141.97;100.00;46185.44;6184312;23;20425;-88
2024/01/03 11:07:13;;;;;;;94.37;34.97;;;;;;;-141.97;100.00;46191.22;6184074;23;20549;-88
2024/01/03 11:09:39;;;;;;;73.37;28.63;;;;;;;-141.97;100.00;46554.34;6158021;23;20703;-89
2024/01/03 11:12:10;;;;;;;85.97;31.93;;;;;;;-141.97;100.00;45956.81;6184363;23;20357;-89
2024/01/03 11:14:36;;;;;;;93.37;35.77;;;;;;;-141.97;100.00;46185.44;6157581;23;20142;-89
2024/01/03 11:17:02;;;;;;;85.90;34.73;;;;;;;-141.97;100.00;46590.84;6182668;23;20377;-89
2024/01/03 11:19:31;;;;;;;85.90;33.80;;;;;;;-141.97;100.00;46181.59;6156775;23;20373;-90
2024/01/03 11:22:02;;;;;;;96.10;38.17;;;;;;;-141.97;100.00;46183.53;6183771;23;20138;-89
2024/01/03 11:24:28;;;;;;;78.30;31.37;;;;;;;-141.97;100.00;46202.72;6184567;23;20846;-92
2024/01/03 11:26:53;;;;;;;90.27;34.80;;;;;;;-141.97;100.00;46204.66;6188571;23;20453;-89
2024/01/03 11:29:41;;;;;;;104.90;42.87;;;;;;;-141.97;100.00;46127.81;6187721;23;20201;-90
2024/01/03 11:32:07;;;;;;;155.37;56.43;;;;;;;-141.97;100.00;46062.47;6184535;23;20142;-90
2024/01/03 11:34:40;;;;;;;94.20;35.77;;;;;;;-141.97;100.00;46193.13;6160032;23;20142;-90
2024/01/03 11:37:09;;;;;;;70.43;28.20;;;;;;;-141.97;100.00;46358.38;6162942;23;20369;-92
2024/01/03 11:39:36;;;;;;;92.17;36.20;;;;;;;-141.97;100.00;46068.25;6188720;23;20130;-91
2024/01/03 11:42:02;;;;;;;89.77;36.70;;;;;;;-141.97;100.00;45939.53;6188183;23;20138;-90
2024/01/03 11:44:28;;;;;;;213.43;85.70;;;;;;;-141.97;100.00;46112.44;6187352;23;20551;-90
2024/01/03 11:47:00;;;;;;;82.07;33.87;;;;;;;-141.97;100.00;46248.84;6164148;23;20149;-91
2024/01/03 11:49:26;;;;;;;82.53;29.67;;;;;;;-141.97;100.00;46100.91;6182229;23;20177;-90